sensor_id;sensor_type;location;lat;lon;timestamp;P1;P2;P0
49064;PMS5003;34876;51.464;-0.150;2023-06-19T00:00:02;29;28;
49064;PMS5003;34876;51.464;-0.150;2023-06-19T00:03:14;19;17;
49064;PMS5003;34876;51.464;-0.150;2023-06-19T00:05:42;18;17;
49064;PMS5003;34876;51.464;-0.150;2023-06-19T00:08:12;16;15;
49064;PMS5003;34876;51.464;-0.150;2023-06-19T00:10:41;13;13;
49064;PMS5003;34876;51.464;-0.150;2023-06-19T00:13:10;15;15;
49064;PMS5003;34876;51.464;-0.150;2023-06-19T00:15:38;17;16;
49064;PMS5003;34876;51.464;-0.150;2023-06-19T00:18:07;19;18;
49064;PMS5003;34876;51.464;-0.150;2023-06-19T00:20:37;17;17;
49064;PMS5003;34876;51.464;-0.150;2023-06-19T00:23:07;19;18;
49064;PMS5003;34876;51.464;-0.150;2023-06-19T00:25:36;17;16;
49064;PMS5003;34876;51.464;-0.150;2023-06-19T00:28:05;17;17;
49064;PMS5003;34876;51.464;-0.150;2023-06-19T00:30:36;15;15;
49064;PMS5003;34876;51.464;-0.150;2023-06-19T00:33:04;14;14;
49064;PMS5003;34876;51.464;-0.150;2023-06-19T00:35:35;16;15;
49064;PMS5003;34876;51.464;-0.150;2023-06-19T00:38:05;16;16;
49064;PMS5003;34876;51.464;-0.150;2023-06-19T00:40:40;21;18;
49064;PMS5003;34876;51.464;-0.150;2023-06-19T00:43:09;17;16;
49064;PMS5003;34876;51.464;-0.150;2023-06-19T00:45:39;13;13;
49064;PMS5003;34876;51.464;-0.150;2023-06-19T00:48:09;19;18;
49064;PMS5003;34876;51.464;-0.150;2023-06-19T00:50:38;17;17;
49064;PMS5003;34876;51.464;-0.150;2023-06-19T00:53:07;18;17;
49064;PMS5003;34876;51.464;-0.150;2023-06-19T00:55:37;16;14;
49064;PMS5003;34876;51.464;-0.150;2023-06-19T00:58:06;16;15;
49064;PMS5003;34876;51.464;-0.150;2023-06-19T01:00:37;15;15;
49064;PMS5003;34876;51.464;-0.150;2023-06-19T01:03:06;16;16;
49064;PMS5003;34876;51.464;-0.150;2023-06-19T01:05:35;16;15;
49064;PMS5003;34876;51.464;-0.150;2023-06-19T01:08:07;16;16;
49064;PMS5003;34876;51.464;-0.150;2023-06-19T01:10:40;19;18;
49064;PMS5003;34876;51.464;-0.150;2023-06-19T01:13:24;17;16;
49064;PMS5003;34876;51.464;-0.150;2023-06-19T01:16:00;14;13;
49064;PMS5003;34876;51.464;-0.150;2023-06-19T01:18:32;18;16;
49064;PMS5003;34876;51.464;-0.150;2023-06-19T01:21:11;18;18;
49064;PMS5003;34876;51.464;-0.150;2023-06-19T01:23:42;17;17;
49064;PMS5003;34876;51.464;-0.150;2023-06-19T01:26:13;16;16;
49064;PMS5003;34876;51.464;-0.150;2023-06-19T01:28:44;16;16;
49064;PMS5003;34876;51.464;-0.150;2023-06-19T01:31:17;18;17;
49064;PMS5003;34876;51.464;-0.150;2023-06-19T01:33:54;17;17;
49064;PMS5003;34876;51.464;-0.150;2023-06-19T01:36:24;19;17;
49064;PMS5003;34876;51.464;-0.150;2023-06-19T01:39:00;17;17;
49064;PMS5003;34876;51.464;-0.150;2023-06-19T01:41:30;22;19;
49064;PMS5003;34876;51.464;-0.150;2023-06-19T01:44:02;17;16;
49064;PMS5003;34876;51.464;-0.150;2023-06-19T01:46:32;15;15;
49064;PMS5003;34876;51.464;-0.150;2023-06-19T01:49:05;18;15;
49064;PMS5003;34876;51.464;-0.150;2023-06-19T01:51:36;12;12;
49064;PMS5003;34876;51.464;-0.150;2023-06-19T01:54:05;18;18;
49064;PMS5003;34876;51.464;-0.150;2023-06-19T01:56:35;13;13;
49064;PMS5003;34876;51.464;-0.150;2023-06-19T01:59:05;14;14;
49064;PMS5003;34876;51.464;-0.150;2023-06-19T02:01:34;21;20;
49064;PMS5003;34876;51.464;-0.150;2023-06-19T02:04:04;14;14;
49064;PMS5003;34876;51.464;-0.150;2023-06-19T02:06:34;17;15;
49064;PMS5003;34876;51.464;-0.150;2023-06-19T02:09:03;19;17;
49064;PMS5003;34876;51.464;-0.150;2023-06-19T02:11:32;16;14;
49064;PMS5003;34876;51.464;-0.150;2023-06-19T02:14:01;14;13;
49064;PMS5003;34876;51.464;-0.150;2023-06-19T02:16:30;17;17;
49064;PMS5003;34876;51.464;-0.150;2023-06-19T02:18:59;16;14;
49064;PMS5003;34876;51.464;-0.150;2023-06-19T02:21:28;15;15;
49064;PMS5003;34876;51.464;-0.150;2023-06-19T02:23:57;19;19;
49064;PMS5003;34876;51.464;-0.150;2023-06-19T02:26:26;19;17;
49064;PMS5003;34876;51.464;-0.150;2023-06-19T02:28:55;16;16;
49064;PMS5003;34876;51.464;-0.150;2023-06-19T02:31:25;16;16;
49064;PMS5003;34876;51.464;-0.150;2023-06-19T02:33:54;17;15;
49064;PMS5003;34876;51.464;-0.150;2023-06-19T02:36:23;16;16;
49064;PMS5003;34876;51.464;-0.150;2023-06-19T02:38:52;18;16;
49064;PMS5003;34876;51.464;-0.150;2023-06-19T02:41:26;14;14;
49064;PMS5003;34876;51.464;-0.150;2023-06-19T02:43:55;19;19;
49064;PMS5003;34876;51.464;-0.150;2023-06-19T02:46:24;20;20;
49064;PMS5003;34876;51.464;-0.150;2023-06-19T02:48:54;20;20;
49064;PMS5003;34876;51.464;-0.150;2023-06-19T02:51:23;18;17;
49064;PMS5003;34876;51.464;-0.150;2023-06-19T02:53:53;15;15;
49064;PMS5003;34876;51.464;-0.150;2023-06-19T02:56:21;23;22;
49064;PMS5003;34876;51.464;-0.150;2023-06-19T02:58:51;18;17;
49064;PMS5003;34876;51.464;-0.150;2023-06-19T03:01:20;19;19;
49064;PMS5003;34876;51.464;-0.150;2023-06-19T03:03:49;18;18;
49064;PMS5003;34876;51.464;-0.150;2023-06-19T03:06:18;18;16;
49064;PMS5003;34876;51.464;-0.150;2023-06-19T03:08:47;18;16;
49064;PMS5003;34876;51.464;-0.150;2023-06-19T03:11:15;16;15;
49064;PMS5003;34876;51.464;-0.150;2023-06-19T03:13:45;16;14;
49064;PMS5003;34876;51.464;-0.150;2023-06-19T03:16:16;19;17;
49064;PMS5003;34876;51.464;-0.150;2023-06-19T03:18:48;16;16;
49064;PMS5003;34876;51.464;-0.150;2023-06-19T03:21:17;18;18;
49064;PMS5003;34876;51.464;-0.150;2023-06-19T03:23:46;14;14;
49064;PMS5003;34876;51.464;-0.150;2023-06-19T03:26:15;14;14;
49064;PMS5003;34876;51.464;-0.150;2023-06-19T03:28:44;19;17;
49064;PMS5003;34876;51.464;-0.150;2023-06-19T03:31:13;19;18;
49064;PMS5003;34876;51.464;-0.150;2023-06-19T03:33:42;21;18;
49064;PMS5003;34876;51.464;-0.150;2023-06-19T03:36:11;17;16;
49064;PMS5003;34876;51.464;-0.150;2023-06-19T03:38:40;19;18;
49064;PMS5003;34876;51.464;-0.150;2023-06-19T03:41:09;24;19;
49064;PMS5003;34876;51.464;-0.150;2023-06-19T03:43:38;14;13;
49064;PMS5003;34876;51.464;-0.150;2023-06-19T03:46:08;17;16;
49064;PMS5003;34876;51.464;-0.150;2023-06-19T03:48:38;16;15;
49064;PMS5003;34876;51.464;-0.150;2023-06-19T03:51:07;16;15;
49064;PMS5003;34876;51.464;-0.150;2023-06-19T03:53:36;19;18;
49064;PMS5003;34876;51.464;-0.150;2023-06-19T03:56:05;16;16;
49064;PMS5003;34876;51.464;-0.150;2023-06-19T03:58:34;16;14;
49064;PMS5003;34876;51.464;-0.150;2023-06-19T04:01:03;21;14;
49064;PMS5003;34876;51.464;-0.150;2023-06-19T04:03:32;19;18;
49064;PMS5003;34876;51.464;-0.150;2023-06-19T04:06:02;19;17;
49064;PMS5003;34876;51.464;-0.150;2023-06-19T04:08:31;19;17;
49064;PMS5003;34876;51.464;-0.150;2023-06-19T04:11:01;18;17;
49064;PMS5003;34876;51.464;-0.150;2023-06-19T04:13:30;15;15;
49064;PMS5003;34876;51.464;-0.150;2023-06-19T04:15:59;19;16;
49064;PMS5003;34876;51.464;-0.150;2023-06-19T04:18:29;19;17;
49064;PMS5003;34876;51.464;-0.150;2023-06-19T04:20:58;14;12;
49064;PMS5003;34876;51.464;-0.150;2023-06-19T04:23:27;16;16;
49064;PMS5003;34876;51.464;-0.150;2023-06-19T04:25:55;14;14;
49064;PMS5003;34876;51.464;-0.150;2023-06-19T04:28:24;16;15;
49064;PMS5003;34876;51.464;-0.150;2023-06-19T04:30:53;14;14;
49064;PMS5003;34876;51.464;-0.150;2023-06-19T04:33:23;14;13;
49064;PMS5003;34876;51.464;-0.150;2023-06-19T04:35:52;16;16;
49064;PMS5003;34876;51.464;-0.150;2023-06-19T04:38:21;17;15;
49064;PMS5003;34876;51.464;-0.150;2023-06-19T04:40:50;19;16;
49064;PMS5003;34876;51.464;-0.150;2023-06-19T04:43:19;17;16;
49064;PMS5003;34876;51.464;-0.150;2023-06-19T04:45:48;14;13;
49064;PMS5003;34876;51.464;-0.150;2023-06-19T04:48:17;17;16;
49064;PMS5003;34876;51.464;-0.150;2023-06-19T04:50:47;22;18;
49064;PMS5003;34876;51.464;-0.150;2023-06-19T04:53:16;15;14;
49064;PMS5003;34876;51.464;-0.150;2023-06-19T04:55:45;21;15;
49064;PMS5003;34876;51.464;-0.150;2023-06-19T04:58:14;19;18;
49064;PMS5003;34876;51.464;-0.150;2023-06-19T05:00:43;18;15;
49064;PMS5003;34876;51.464;-0.150;2023-06-19T05:03:13;16;14;
49064;PMS5003;34876;51.464;-0.150;2023-06-19T05:05:42;16;13;
49064;PMS5003;34876;51.464;-0.150;2023-06-19T05:08:12;14;13;
49064;PMS5003;34876;51.464;-0.150;2023-06-19T05:10:41;15;14;
49064;PMS5003;34876;51.464;-0.150;2023-06-19T05:13:10;16;16;
49064;PMS5003;34876;51.464;-0.150;2023-06-19T05:15:39;16;16;
49064;PMS5003;34876;51.464;-0.150;2023-06-19T05:18:08;14;12;
49064;PMS5003;34876;51.464;-0.150;2023-06-19T05:20:37;18;17;
49064;PMS5003;34876;51.464;-0.150;2023-06-19T05:23:06;12;12;
49064;PMS5003;34876;51.464;-0.150;2023-06-19T05:25:34;14;13;
49064;PMS5003;34876;51.464;-0.150;2023-06-19T05:28:04;17;17;
49064;PMS5003;34876;51.464;-0.150;2023-06-19T05:30:33;18;17;
49064;PMS5003;34876;51.464;-0.150;2023-06-19T05:33:02;16;14;
49064;PMS5003;34876;51.464;-0.150;2023-06-19T05:35:32;17;16;
49064;PMS5003;34876;51.464;-0.150;2023-06-19T05:38:01;17;15;
49064;PMS5003;34876;51.464;-0.150;2023-06-19T05:40:30;15;15;
49064;PMS5003;34876;51.464;-0.150;2023-06-19T05:42:59;14;13;
49064;PMS5003;34876;51.464;-0.150;2023-06-19T05:45:27;19;19;
49064;PMS5003;34876;51.464;-0.150;2023-06-19T05:47:57;19;16;
49064;PMS5003;34876;51.464;-0.150;2023-06-19T05:50:26;17;15;
49064;PMS5003;34876;51.464;-0.150;2023-06-19T05:52:55;18;14;
49064;PMS5003;34876;51.464;-0.150;2023-06-19T05:55:24;17;16;
49064;PMS5003;34876;51.464;-0.150;2023-06-19T05:57:53;16;16;
49064;PMS5003;34876;51.464;-0.150;2023-06-19T06:00:22;13;13;
49064;PMS5003;34876;51.464;-0.150;2023-06-19T06:02:51;13;11;
49064;PMS5003;34876;51.464;-0.150;2023-06-19T06:05:21;15;13;
49064;PMS5003;34876;51.464;-0.150;2023-06-19T06:07:50;20;20;
49064;PMS5003;34876;51.464;-0.150;2023-06-19T06:10:19;14;14;
49064;PMS5003;34876;51.464;-0.150;2023-06-19T06:12:50;18;16;
49064;PMS5003;34876;51.464;-0.150;2023-06-19T06:15:20;20;18;
49064;PMS5003;34876;51.464;-0.150;2023-06-19T06:17:50;17;15;
49064;PMS5003;34876;51.464;-0.150;2023-06-19T06:20:19;16;14;
49064;PMS5003;34876;51.464;-0.150;2023-06-19T06:22:48;17;15;
49064;PMS5003;34876;51.464;-0.150;2023-06-19T06:25:18;13;11;
49064;PMS5003;34876;51.464;-0.150;2023-06-19T06:27:47;19;18;
49064;PMS5003;34876;51.464;-0.150;2023-06-19T06:30:16;16;16;
49064;PMS5003;34876;51.464;-0.150;2023-06-19T06:32:44;15;15;
49064;PMS5003;34876;51.464;-0.150;2023-06-19T06:35:13;18;15;
49064;PMS5003;34876;51.464;-0.150;2023-06-19T06:37:43;14;13;
49064;PMS5003;34876;51.464;-0.150;2023-06-19T06:40:12;13;13;
49064;PMS5003;34876;51.464;-0.150;2023-06-19T06:42:41;18;16;
49064;PMS5003;34876;51.464;-0.150;2023-06-19T06:45:10;16;14;
49064;PMS5003;34876;51.464;-0.150;2023-06-19T06:47:39;16;15;
49064;PMS5003;34876;51.464;-0.150;2023-06-19T06:50:08;11;11;
49064;PMS5003;34876;51.464;-0.150;2023-06-19T06:52:38;17;14;
49064;PMS5003;34876;51.464;-0.150;2023-06-19T06:55:07;18;14;
49064;PMS5003;34876;51.464;-0.150;2023-06-19T06:57:37;14;14;
49064;PMS5003;34876;51.464;-0.150;2023-06-19T07:00:06;17;14;
49064;PMS5003;34876;51.464;-0.150;2023-06-19T07:02:37;14;14;
49064;PMS5003;34876;51.464;-0.150;2023-06-19T07:05:07;14;12;
49064;PMS5003;34876;51.464;-0.150;2023-06-19T07:07:37;16;14;
49064;PMS5003;34876;51.464;-0.150;2023-06-19T07:10:06;13;13;
49064;PMS5003;34876;51.464;-0.150;2023-06-19T07:12:44;15;14;
49064;PMS5003;34876;51.464;-0.150;2023-06-19T07:15:13;16;16;
49064;PMS5003;34876;51.464;-0.150;2023-06-19T07:17:43;15;15;
49064;PMS5003;34876;51.464;-0.150;2023-06-19T07:20:13;15;15;
49064;PMS5003;34876;51.464;-0.150;2023-06-19T07:22:42;15;15;
49064;PMS5003;34876;51.464;-0.150;2023-06-19T07:25:12;20;16;
49064;PMS5003;34876;51.464;-0.150;2023-06-19T07:27:42;14;14;
49064;PMS5003;34876;51.464;-0.150;2023-06-19T07:30:12;14;14;
49064;PMS5003;34876;51.464;-0.150;2023-06-19T07:32:42;19;19;
49064;PMS5003;34876;51.464;-0.150;2023-06-19T07:35:13;13;13;
49064;PMS5003;34876;51.464;-0.150;2023-06-19T07:37:42;17;16;
49064;PMS5003;34876;51.464;-0.150;2023-06-19T07:40:11;19;19;
49064;PMS5003;34876;51.464;-0.150;2023-06-19T07:42:41;17;17;
49064;PMS5003;34876;51.464;-0.150;2023-06-19T07:45:11;13;13;
49064;PMS5003;34876;51.464;-0.150;2023-06-19T07:47:41;17;12;
49064;PMS5003;34876;51.464;-0.150;2023-06-19T07:50:10;13;12;
49064;PMS5003;34876;51.464;-0.150;2023-06-19T07:52:39;14;14;
49064;PMS5003;34876;51.464;-0.150;2023-06-19T07:55:09;11;11;
49064;PMS5003;34876;51.464;-0.150;2023-06-19T07:57:38;16;14;
49064;PMS5003;34876;51.464;-0.150;2023-06-19T08:00:07;14;14;
49064;PMS5003;34876;51.464;-0.150;2023-06-19T08:02:37;13;13;
49064;PMS5003;34876;51.464;-0.150;2023-06-19T08:05:07;18;15;
49064;PMS5003;34876;51.464;-0.150;2023-06-19T08:07:41;14;12;
49064;PMS5003;34876;51.464;-0.150;2023-06-19T08:10:10;16;16;
49064;PMS5003;34876;51.464;-0.150;2023-06-19T08:12:40;12;12;
49064;PMS5003;34876;51.464;-0.150;2023-06-19T08:15:10;15;14;
49064;PMS5003;34876;51.464;-0.150;2023-06-19T08:17:40;16;14;
49064;PMS5003;34876;51.464;-0.150;2023-06-19T08:20:10;14;14;
49064;PMS5003;34876;51.464;-0.150;2023-06-19T08:22:40;12;11;
49064;PMS5003;34876;51.464;-0.150;2023-06-19T08:25:09;13;12;
49064;PMS5003;34876;51.464;-0.150;2023-06-19T08:27:39;14;14;
49064;PMS5003;34876;51.464;-0.150;2023-06-19T08:30:08;12;12;
49064;PMS5003;34876;51.464;-0.150;2023-06-19T08:32:38;16;14;
49064;PMS5003;34876;51.464;-0.150;2023-06-19T08:35:07;14;14;
49064;PMS5003;34876;51.464;-0.150;2023-06-19T08:37:36;12;12;
49064;PMS5003;34876;51.464;-0.150;2023-06-19T08:40:06;14;13;
49064;PMS5003;34876;51.464;-0.150;2023-06-19T08:42:36;12;12;
49064;PMS5003;34876;51.464;-0.150;2023-06-19T08:45:06;10;10;
49064;PMS5003;34876;51.464;-0.150;2023-06-19T08:47:36;13;13;
49064;PMS5003;34876;51.464;-0.150;2023-06-19T08:50:05;14;13;
49064;PMS5003;34876;51.464;-0.150;2023-06-19T08:52:35;10;10;
49064;PMS5003;34876;51.464;-0.150;2023-06-19T08:55:03;10;10;
49064;PMS5003;34876;51.464;-0.150;2023-06-19T08:57:34;10;10;
49064;PMS5003;34876;51.464;-0.150;2023-06-19T09:00:04;14;13;
49064;PMS5003;34876;51.464;-0.150;2023-06-19T09:02:38;10;10;
49064;PMS5003;34876;51.464;-0.150;2023-06-19T09:05:10;10;10;
49064;PMS5003;34876;51.464;-0.150;2023-06-19T09:07:41;11;10;
49064;PMS5003;34876;51.464;-0.150;2023-06-19T09:10:13;15;13;
49064;PMS5003;34876;51.464;-0.150;2023-06-19T09:12:55;13;12;
49064;PMS5003;34876;51.464;-0.150;2023-06-19T09:15:27;11;11;
49064;PMS5003;34876;51.464;-0.150;2023-06-19T09:18:01;12;12;
49064;PMS5003;34876;51.464;-0.150;2023-06-19T09:20:31;12;11;
49064;PMS5003;34876;51.464;-0.150;2023-06-19T09:23:02;18;15;
49064;PMS5003;34876;51.464;-0.150;2023-06-19T09:25:42;13;12;
49064;PMS5003;34876;51.464;-0.150;2023-06-19T09:28:16;14;13;
49064;PMS5003;34876;51.464;-0.150;2023-06-19T09:30:51;11;11;
49064;PMS5003;34876;51.464;-0.150;2023-06-19T09:33:21;13;13;
49064;PMS5003;34876;51.464;-0.150;2023-06-19T09:35:51;11;8;
49064;PMS5003;34876;51.464;-0.150;2023-06-19T09:38:24;13;12;
49064;PMS5003;34876;51.464;-0.150;2023-06-19T09:40:55;15;15;
49064;PMS5003;34876;51.464;-0.150;2023-06-19T09:43:30;13;13;
49064;PMS5003;34876;51.464;-0.150;2023-06-19T09:46:02;13;13;
49064;PMS5003;34876;51.464;-0.150;2023-06-19T09:48:33;12;11;
49064;PMS5003;34876;51.464;-0.150;2023-06-19T09:51:06;14;12;
49064;PMS5003;34876;51.464;-0.150;2023-06-19T09:53:38;14;11;
49064;PMS5003;34876;51.464;-0.150;2023-06-19T09:56:08;15;14;
49064;PMS5003;34876;51.464;-0.150;2023-06-19T09:58:38;13;12;
49064;PMS5003;34876;51.464;-0.150;2023-06-19T10:01:09;11;11;
49064;PMS5003;34876;51.464;-0.150;2023-06-19T10:03:40;13;13;
49064;PMS5003;34876;51.464;-0.150;2023-06-19T10:06:12;13;12;
49064;PMS5003;34876;51.464;-0.150;2023-06-19T10:08:43;13;12;
49064;PMS5003;34876;51.464;-0.150;2023-06-19T10:11:13;13;11;
49064;PMS5003;34876;51.464;-0.150;2023-06-19T10:13:47;12;12;
49064;PMS5003;34876;51.464;-0.150;2023-06-19T10:16:19;12;12;
49064;PMS5003;34876;51.464;-0.150;2023-06-19T10:18:49;14;11;
49064;PMS5003;34876;51.464;-0.150;2023-06-19T10:21:19;11;10;
49064;PMS5003;34876;51.464;-0.150;2023-06-19T10:23:54;12;11;
49064;PMS5003;34876;51.464;-0.150;2023-06-19T10:26:32;12;12;
49064;PMS5003;34876;51.464;-0.150;2023-06-19T10:29:12;11;11;
49064;PMS5003;34876;51.464;-0.150;2023-06-19T10:31:43;11;10;
49064;PMS5003;34876;51.464;-0.150;2023-06-19T10:34:12;14;12;
49064;PMS5003;34876;51.464;-0.150;2023-06-19T10:36:41;11;11;
49064;PMS5003;34876;51.464;-0.150;2023-06-19T10:39:10;13;12;
49064;PMS5003;34876;51.464;-0.150;2023-06-19T10:41:40;14;14;
49064;PMS5003;34876;51.464;-0.150;2023-06-19T10:44:08;13;12;
49064;PMS5003;34876;51.464;-0.150;2023-06-19T10:46:37;10;10;
49064;PMS5003;34876;51.464;-0.150;2023-06-19T10:49:07;15;14;
49064;PMS5003;34876;51.464;-0.150;2023-06-19T10:51:37;11;11;
49064;PMS5003;34876;51.464;-0.150;2023-06-19T10:54:07;12;12;
49064;PMS5003;34876;51.464;-0.150;2023-06-19T10:56:36;13;13;
49064;PMS5003;34876;51.464;-0.150;2023-06-19T10:59:06;13;13;
49064;PMS5003;34876;51.464;-0.150;2023-06-19T11:01:37;12;12;
49064;PMS5003;34876;51.464;-0.150;2023-06-19T11:04:08;12;11;
49064;PMS5003;34876;51.464;-0.150;2023-06-19T11:06:39;12;11;
49064;PMS5003;34876;51.464;-0.150;2023-06-19T11:09:11;11;10;
49064;PMS5003;34876;51.464;-0.150;2023-06-19T11:11:41;12;12;
49064;PMS5003;34876;51.464;-0.150;2023-06-19T11:14:12;12;12;
49064;PMS5003;34876;51.464;-0.150;2023-06-19T11:16:44;12;12;
49064;PMS5003;34876;51.464;-0.150;2023-06-19T11:19:15;10;10;
49064;PMS5003;34876;51.464;-0.150;2023-06-19T11:21:46;11;8;
49064;PMS5003;34876;51.464;-0.150;2023-06-19T11:24:16;12;11;
49064;PMS5003;34876;51.464;-0.150;2023-06-19T11:26:48;11;10;
49064;PMS5003;34876;51.464;-0.150;2023-06-19T11:29:20;9;9;
49064;PMS5003;34876;51.464;-0.150;2023-06-19T11:31:50;11;11;
49064;PMS5003;34876;51.464;-0.150;2023-06-19T11:34:30;10;10;
49064;PMS5003;34876;51.464;-0.150;2023-06-19T11:37:00;11;10;
49064;PMS5003;34876;51.464;-0.150;2023-06-19T11:39:29;11;10;
49064;PMS5003;34876;51.464;-0.150;2023-06-19T11:41:59;13;13;
49064;PMS5003;34876;51.464;-0.150;2023-06-19T11:44:29;15;12;
49064;PMS5003;34876;51.464;-0.150;2023-06-19T11:46:57;11;11;
49064;PMS5003;34876;51.464;-0.150;2023-06-19T11:49:27;10;10;
49064;PMS5003;34876;51.464;-0.150;2023-06-19T11:51:57;12;10;
49064;PMS5003;34876;51.464;-0.150;2023-06-19T11:54:26;11;11;
49064;PMS5003;34876;51.464;-0.150;2023-06-19T11:56:55;13;11;
49064;PMS5003;34876;51.464;-0.150;2023-06-19T11:59:24;8;8;
49064;PMS5003;34876;51.464;-0.150;2023-06-19T12:01:53;11;9;
49064;PMS5003;34876;51.464;-0.150;2023-06-19T12:04:22;10;10;
49064;PMS5003;34876;51.464;-0.150;2023-06-19T12:06:51;11;9;
49064;PMS5003;34876;51.464;-0.150;2023-06-19T12:09:21;12;12;
49064;PMS5003;34876;51.464;-0.150;2023-06-19T12:11:51;11;10;
49064;PMS5003;34876;51.464;-0.150;2023-06-19T12:14:23;11;9;
49064;PMS5003;34876;51.464;-0.150;2023-06-19T12:16:52;10;9;
49064;PMS5003;34876;51.464;-0.150;2023-06-19T12:19:21;11;10;
49064;PMS5003;34876;51.464;-0.150;2023-06-19T12:21:49;12;12;
49064;PMS5003;34876;51.464;-0.150;2023-06-19T12:24:19;11;11;
49064;PMS5003;34876;51.464;-0.150;2023-06-19T12:26:48;13;10;
49064;PMS5003;34876;51.464;-0.150;2023-06-19T12:29:17;9;9;
49064;PMS5003;34876;51.464;-0.150;2023-06-19T12:31:46;14;11;
49064;PMS5003;34876;51.464;-0.150;2023-06-19T12:34:15;11;9;
49064;PMS5003;34876;51.464;-0.150;2023-06-19T12:36:44;10;10;
49064;PMS5003;34876;51.464;-0.150;2023-06-19T12:39:13;12;11;
49064;PMS5003;34876;51.464;-0.150;2023-06-19T12:41:43;12;11;
49064;PMS5003;34876;51.464;-0.150;2023-06-19T12:44:12;8;8;
49064;PMS5003;34876;51.464;-0.150;2023-06-19T12:46:41;15;9;
49064;PMS5003;34876;51.464;-0.150;2023-06-19T12:49:11;10;10;
49064;PMS5003;34876;51.464;-0.150;2023-06-19T12:51:40;13;12;
49064;PMS5003;34876;51.464;-0.150;2023-06-19T12:54:09;11;9;
49064;PMS5003;34876;51.464;-0.150;2023-06-19T12:56:38;9;8;
49064;PMS5003;34876;51.464;-0.150;2023-06-19T12:59:08;11;11;
49064;PMS5003;34876;51.464;-0.150;2023-06-19T13:01:38;11;11;
49064;PMS5003;34876;51.464;-0.150;2023-06-19T13:04:26;11;11;
49064;PMS5003;34876;51.464;-0.150;2023-06-19T13:06:56;12;11;
49064;PMS5003;34876;51.464;-0.150;2023-06-19T13:09:25;11;10;
49064;PMS5003;34876;51.464;-0.150;2023-06-19T13:11:54;9;9;
49064;PMS5003;34876;51.464;-0.150;2023-06-19T13:14:23;9;9;
49064;PMS5003;34876;51.464;-0.150;2023-06-19T13:16:52;12;12;
49064;PMS5003;34876;51.464;-0.150;2023-06-19T13:19:21;9;9;
49064;PMS5003;34876;51.464;-0.150;2023-06-19T13:21:50;10;8;
49064;PMS5003;34876;51.464;-0.150;2023-06-19T13:24:20;10;10;
49064;PMS5003;34876;51.464;-0.150;2023-06-19T13:26:49;12;12;
49064;PMS5003;34876;51.464;-0.150;2023-06-19T13:29:18;10;9;
49064;PMS5003;34876;51.464;-0.150;2023-06-19T13:31:47;9;8;
49064;PMS5003;34876;51.464;-0.150;2023-06-19T13:34:15;13;12;
49064;PMS5003;34876;51.464;-0.150;2023-06-19T13:36:45;11;11;
49064;PMS5003;34876;51.464;-0.150;2023-06-19T13:39:14;11;11;
49064;PMS5003;34876;51.464;-0.150;2023-06-19T13:41:46;11;10;
49064;PMS5003;34876;51.464;-0.150;2023-06-19T13:44:15;13;9;
49064;PMS5003;34876;51.464;-0.150;2023-06-19T13:46:44;10;10;
49064;PMS5003;34876;51.464;-0.150;2023-06-19T13:49:13;11;10;
49064;PMS5003;34876;51.464;-0.150;2023-06-19T13:51:43;9;9;
49064;PMS5003;34876;51.464;-0.150;2023-06-19T13:54:13;17;15;
49064;PMS5003;34876;51.464;-0.150;2023-06-19T13:56:42;9;9;
49064;PMS5003;34876;51.464;-0.150;2023-06-19T13:59:12;11;11;
49064;PMS5003;34876;51.464;-0.150;2023-06-19T14:01:40;13;12;
49064;PMS5003;34876;51.464;-0.150;2023-06-19T14:04:09;11;10;
49064;PMS5003;34876;51.464;-0.150;2023-06-19T14:06:39;13;12;
49064;PMS5003;34876;51.464;-0.150;2023-06-19T14:09:07;9;9;
49064;PMS5003;34876;51.464;-0.150;2023-06-19T14:11:38;11;11;
49064;PMS5003;34876;51.464;-0.150;2023-06-19T14:14:07;14;13;
49064;PMS5003;34876;51.464;-0.150;2023-06-19T14:16:35;11;9;
49064;PMS5003;34876;51.464;-0.150;2023-06-19T14:19:07;13;11;
49064;PMS5003;34876;51.464;-0.150;2023-06-19T14:21:38;11;10;
49064;PMS5003;34876;51.464;-0.150;2023-06-19T14:24:06;8;8;
49064;PMS5003;34876;51.464;-0.150;2023-06-19T14:26:36;10;10;
49064;PMS5003;34876;51.464;-0.150;2023-06-19T14:29:05;10;8;
49064;PMS5003;34876;51.464;-0.150;2023-06-19T14:31:34;13;11;
49064;PMS5003;34876;51.464;-0.150;2023-06-19T14:34:03;10;9;
49064;PMS5003;34876;51.464;-0.150;2023-06-19T14:36:32;11;11;
49064;PMS5003;34876;51.464;-0.150;2023-06-19T14:39:01;9;9;
49064;PMS5003;34876;51.464;-0.150;2023-06-19T14:41:30;11;10;
49064;PMS5003;34876;51.464;-0.150;2023-06-19T14:44:00;11;11;
49064;PMS5003;34876;51.464;-0.150;2023-06-19T14:46:29;14;14;
49064;PMS5003;34876;51.464;-0.150;2023-06-19T14:48:59;10;10;
49064;PMS5003;34876;51.464;-0.150;2023-06-19T14:51:28;11;10;
49064;PMS5003;34876;51.464;-0.150;2023-06-19T14:53:57;12;12;
49064;PMS5003;34876;51.464;-0.150;2023-06-19T14:56:25;11;11;
49064;PMS5003;34876;51.464;-0.150;2023-06-19T14:58:55;11;10;
49064;PMS5003;34876;51.464;-0.150;2023-06-19T15:01:24;10;9;
49064;PMS5003;34876;51.464;-0.150;2023-06-19T15:03:53;13;13;
49064;PMS5003;34876;51.464;-0.150;2023-06-19T15:06:23;14;12;
49064;PMS5003;34876;51.464;-0.150;2023-06-19T15:08:52;11;10;
49064;PMS5003;34876;51.464;-0.150;2023-06-19T15:11:21;13;12;
49064;PMS5003;34876;51.464;-0.150;2023-06-19T15:13:50;12;11;
49064;PMS5003;34876;51.464;-0.150;2023-06-19T15:16:19;13;11;
49064;PMS5003;34876;51.464;-0.150;2023-06-19T15:18:49;17;11;
49064;PMS5003;34876;51.464;-0.150;2023-06-19T15:21:18;13;12;
49064;PMS5003;34876;51.464;-0.150;2023-06-19T15:23:47;12;11;
49064;PMS5003;34876;51.464;-0.150;2023-06-19T15:26:15;12;10;
49064;PMS5003;34876;51.464;-0.150;2023-06-19T15:28:45;9;8;
49064;PMS5003;34876;51.464;-0.150;2023-06-19T15:31:14;14;14;
49064;PMS5003;34876;51.464;-0.150;2023-06-19T15:33:43;12;10;
49064;PMS5003;34876;51.464;-0.150;2023-06-19T15:36:12;10;10;
49064;PMS5003;34876;51.464;-0.150;2023-06-19T15:38:41;10;10;
49064;PMS5003;34876;51.464;-0.150;2023-06-19T15:41:10;10;10;
49064;PMS5003;34876;51.464;-0.150;2023-06-19T15:43:41;12;10;
49064;PMS5003;34876;51.464;-0.150;2023-06-19T15:46:10;13;11;
49064;PMS5003;34876;51.464;-0.150;2023-06-19T15:48:43;12;12;
49064;PMS5003;34876;51.464;-0.150;2023-06-19T15:51:12;11;11;
49064;PMS5003;34876;51.464;-0.150;2023-06-19T15:53:40;14;11;
49064;PMS5003;34876;51.464;-0.150;2023-06-19T15:56:10;12;10;
49064;PMS5003;34876;51.464;-0.150;2023-06-19T15:58:39;12;12;
49064;PMS5003;34876;51.464;-0.150;2023-06-19T16:01:09;10;9;
49064;PMS5003;34876;51.464;-0.150;2023-06-19T16:03:38;13;12;
49064;PMS5003;34876;51.464;-0.150;2023-06-19T16:06:07;12;11;
49064;PMS5003;34876;51.464;-0.150;2023-06-19T16:08:36;13;12;
49064;PMS5003;34876;51.464;-0.150;2023-06-19T16:11:05;12;12;
49064;PMS5003;34876;51.464;-0.150;2023-06-19T16:13:35;12;10;
49064;PMS5003;34876;51.464;-0.150;2023-06-19T16:16:03;11;11;
49064;PMS5003;34876;51.464;-0.150;2023-06-19T16:18:32;12;11;
49064;PMS5003;34876;51.464;-0.150;2023-06-19T16:21:03;10;10;